Discovery — 3FII9 — position and weather

sailwx.info

Track history (hours):
 
Tides and Currents Weather Stations Pressure Air Temp Water Temp Dewpoint Dewpoint Depression Visibility Wind Speed Wind Dir Waves Ship Positions

Discovery

Operator: V Ships Leisure SAM

Last reported at 2019-Jun-06 03:11 UTC. Time now 2019-Jul-16 00:10 UTC.
Position S 45°52' E 170°33'.
Warning: this ship's position is 39 days out of date.

Length 177 m; draft 10.2 m.

Type: Cargo ship. MMSI: 353389000.

Date/timePositionNaut miles runAvg speedWind from/ knotsBaromVisibWave heightAir tempDewpointWater temp
2019-Jun-06 03:11S 45°52' E 170°33'1 6.1
2019-Jun-06 03:00S 45°53' E 170°32'0 0.0
2019-Jun-04 02:09S 45°52' E 170°31'0 0.1
2019-Jun-04 01:59S 45°53' E 170°31'1 2.1
2019-Jun-04 01:29S 45°52' E 170°33'  
2019-Jun-01 03:26S 42°13' E 174°22'3 5.5
2019-Jun-01 02:56S 42°11' E 174°23'3 7.1
2019-Jun-01 02:30S 42°08' E 174°25'4 7.6
2019-Jun-01 02:00S 42°05' E 174°27'3 6.5
2019-Jun-01 01:30S 42°02' E 174°29'5 9.5
2019-Jun-01 01:00S 41°57' E 174°31'612.2
2019-Jun-01 00:30S 41°52' E 174°34'611.7
2019-Jun-01 00:00S 41°46' E 174°37'612.1
2019-May-31 23:30S 41°41' E 174°40'713.9
2019-May-31 23:00S 41°34' E 174°43'713.1
2019-May-31 22:31S 41°28' E 174°47'612.7
2019-May-31 22:00S 41°22' E 174°50'611.2
2019-May-31 21:30S 41°17' E 174°52'2 3.1
2019-May-31 20:50S 41°16' E 174°54'0 0.0
2019-May-31 20:23S 41°16' E 174°54'0 0.0
2019-May-31 11:20S 41°16' E 174°54'0 0.0
2019-May-31 10:59S 41°16' E 174°54'0 0.0
2019-May-30 07:44S 41°16' E 174°54'0 0.7
2019-May-30 07:30S 41°16' E 174°54'7 6.8
2019-May-30 06:32S 41°22' E 174°50'0 8.4
2019-May-30 06:31S 41°22' E 174°50'4 7.7
2019-May-30 06:01S 41°25' E 174°49'5 9.1
2019-May-30 05:30S 41°30' E 174°51'5 9.6
2019-May-30 05:01S 41°33' E 174°55'5 9.1
2019-May-30 04:31S 41°36' E 175°00'511.0
2019-May-30 04:01S 41°39' E 175°06'510.6
2019-May-30 03:30S 41°42' E 175°12'5 9.8
2019-May-30 03:01S 41°43' E 175°19'510.3
2019-May-30 02:30S 41°43' E 175°25'811.8
2019-May-30 01:50S 41°42' E 175°36'25412.8
2019-May-29 05:58S 38°15' E 178°48'913.4
2019-May-29 05:16S 38°06' E 178°51'513.3
2019-May-29 04:54S 38°01' E 178°52'  
Track history (hours):
 
Tides and Currents Weather Stations Pressure Air Temp Water Temp Dewpoint Dewpoint Depression Visibility Wind Speed Wind Dir Waves Ship Positions

Discovery

Operator: V Ships Leisure SAM

Last reported at 2019-Jun-06 03:11 UTC. Time now 2019-Jul-16 00:10 UTC.
Position S 45°52' E 170°33'.
Warning: this ship's position is 39 days out of date.

Length 177 m; draft 10.2 m.

Type: Cargo ship. MMSI: 353389000.

Date/timePositionNaut miles runAvg speedWind from/ knotsBaromVisibWave heightAir tempDewpointWater temp
2019-Jun-06 03:11S 45°52' E 170°33'1 6.1
2019-Jun-06 03:00S 45°53' E 170°32'0 0.0
2019-Jun-04 02:09S 45°52' E 170°31'0 0.1
2019-Jun-04 01:59S 45°53' E 170°31'1 2.1
2019-Jun-04 01:29S 45°52' E 170°33'  
2019-Jun-01 03:26S 42°13' E 174°22'3 5.5
2019-Jun-01 02:56S 42°11' E 174°23'3 7.1
2019-Jun-01 02:30S 42°08' E 174°25'4 7.6
2019-Jun-01 02:00S 42°05' E 174°27'3 6.5
2019-Jun-01 01:30S 42°02' E 174°29'5 9.5
2019-Jun-01 01:00S 41°57' E 174°31'612.2
2019-Jun-01 00:30S 41°52' E 174°34'611.7
2019-Jun-01 00:00S 41°46' E 174°37'612.1
2019-May-31 23:30S 41°41' E 174°40'713.9
2019-May-31 23:00S 41°34' E 174°43'713.1
2019-May-31 22:31S 41°28' E 174°47'612.7
2019-May-31 22:00S 41°22' E 174°50'611.2
2019-May-31 21:30S 41°17' E 174°52'2 3.1
2019-May-31 20:50S 41°16' E 174°54'0 0.0
2019-May-31 20:23S 41°16' E 174°54'0 0.0
2019-May-31 11:20S 41°16' E 174°54'0 0.0
2019-May-31 10:59S 41°16' E 174°54'0 0.0
2019-May-30 07:44S 41°16' E 174°54'0 0.7
2019-May-30 07:30S 41°16' E 174°54'7 6.8
2019-May-30 06:32S 41°22' E 174°50'0 8.4
2019-May-30 06:31S 41°22' E 174°50'4 7.7
2019-May-30 06:01S 41°25' E 174°49'5 9.1
2019-May-30 05:30S 41°30' E 174°51'5 9.6
2019-May-30 05:01S 41°33' E 174°55'5 9.1
2019-May-30 04:31S 41°36' E 175°00'511.0
2019-May-30 04:01S 41°39' E 175°06'510.6
2019-May-30 03:30S 41°42' E 175°12'5 9.8
2019-May-30 03:01S 41°43' E 175°19'510.3
2019-May-30 02:30S 41°43' E 175°25'811.8
2019-May-30 01:50S 41°42' E 175°36'25412.8
2019-May-29 05:58S 38°15' E 178°48'913.4
2019-May-29 05:16S 38°06' E 178°51'513.3
2019-May-29 04:54S 38°01' E 178°52'  

Dump ship's entire track history